createdAt,value
2022-12-23T00:00:10.339Z,7.26
2022-12-23T00:05:05.593Z,7.31
2022-12-23T00:10:01.852Z,7.59
2022-12-23T00:14:58.135Z,7.67
2022-12-23T00:19:54.347Z,7.59
2022-12-23T00:24:50.649Z,7.21
2022-12-23T00:29:46.873Z,7.87
2022-12-23T00:34:43.137Z,7.89
2022-12-23T00:39:43.351Z,7.66
2022-12-23T00:44:39.627Z,7.24
2022-12-23T00:49:35.898Z,7
2022-12-23T00:54:32.161Z,7.04
2022-12-23T00:59:28.387Z,7.03
2022-12-23T01:04:24.664Z,7.42
2022-12-23T01:09:20.970Z,7.57
2022-12-23T01:14:17.207Z,7.97
2022-12-23T01:19:13.446Z,7.08
2022-12-23T01:24:09.730Z,7.93
2022-12-23T01:29:06.983Z,7.63
2022-12-23T01:34:03.285Z,7.26
2022-12-23T01:38:59.486Z,7.15
2022-12-23T01:43:55.736Z,7.03
2022-12-23T01:48:53.980Z,6.89
2022-12-23T01:53:53.247Z,7.51
2022-12-23T01:58:54.518Z,7.05
2022-12-23T02:03:52.777Z,6.95
2022-12-23T02:08:48.983Z,7.12
2022-12-23T02:13:51.274Z,6.93
2022-12-23T02:19:01.478Z,6.92
2022-12-23T02:24:17.662Z,6.8
2022-12-23T02:29:31.901Z,6.53
2022-12-23T02:34:36.160Z,6.83
2022-12-23T02:39:38.379Z,6.81
2022-12-23T02:44:42.652Z,6.82
2022-12-23T02:49:44.888Z,7.09
2022-12-23T02:59:51.375Z,7.01
2022-12-23T03:04:47.618Z,6.78
2022-12-23T03:09:53.871Z,6.59
2022-12-23T03:15:08.078Z,6.81
2022-12-23T03:20:12.332Z,6.5
2022-12-23T03:25:13.567Z,6.29
2022-12-23T03:30:14.818Z,6.82
2022-12-23T03:35:14.072Z,6.88
2022-12-23T03:40:15.298Z,6.73
2022-12-23T03:45:38.297Z,6.98
2022-12-23T03:50:22.773Z,7.19
2022-12-23T03:55:24.011Z,8.24
2022-12-23T04:00:21.287Z,7.51
2022-12-23T04:10:29.751Z,7.24
2022-12-23T04:15:27.058Z,6.35
2022-12-23T04:20:24.294Z,6.68
2022-12-23T04:30:29.783Z,7.46
2022-12-23T04:40:31.262Z,7.06
2022-12-23T04:45:27.547Z,6.87
2022-12-23T04:50:22.801Z,7.37
2022-12-23T04:55:19.047Z,7.59
2022-12-23T05:00:16.293Z,6.82
2022-12-23T05:05:12.549Z,6.26
2022-12-23T05:10:09.811Z,6.52
2022-12-23T05:15:07.106Z,6.87
2022-12-23T05:20:02.349Z,7.04
2022-12-23T05:24:57.637Z,6.58
2022-12-23T05:29:53.847Z,7.4
2022-12-23T05:34:50.112Z,7.51
2022-12-23T05:39:46.348Z,7.42
2022-12-23T05:44:42.610Z,6.26
2022-12-23T05:49:38.870Z,6.88
2022-12-23T05:54:35.143Z,6.67
2022-12-23T05:59:31.958Z,6.16
2022-12-23T06:04:27.777Z,6.5
2022-12-23T06:09:23.930Z,6.69
2022-12-23T06:14:25.169Z,5.9
2022-12-23T06:19:21.444Z,5.71
2022-12-23T06:24:17.661Z,5.54
2022-12-23T06:29:13.924Z,5.39
2022-12-23T06:34:10.210Z,5.64
2022-12-23T06:39:06.482Z,5.31
2022-12-23T06:44:01.719Z,5.3
2022-12-23T06:48:56.999Z,5.81
2022-12-23T06:53:53.244Z,6.03
2022-12-23T06:58:49.525Z,5.99
2022-12-23T07:03:45.857Z,5.79
2022-12-23T07:08:42.051Z,5.8
2022-12-23T07:13:38.285Z,5.57
2022-12-23T07:18:34.553Z,5.54
2022-12-23T07:23:30.783Z,5.71
2022-12-23T07:28:26.112Z,5.7
2022-12-23T07:33:22.354Z,6.22
2022-12-23T07:38:22.609Z,6.25
2022-12-23T07:43:19.830Z,6.59
2022-12-23T07:48:16.095Z,6.68
2022-12-23T07:53:12.341Z,6.98
2022-12-23T07:58:08.604Z,7.36
2022-12-23T08:03:05.064Z,7.56
2022-12-23T08:08:01.146Z,7.86
2022-12-23T08:12:59.376Z,7.39
2022-12-23T08:17:57.630Z,7.47
2022-12-23T08:22:54.894Z,6.69
2022-12-23T08:27:51.182Z,6.8
2022-12-23T08:32:48.430Z,6.31
2022-12-23T08:38:16.619Z,7.64
2022-12-23T08:43:12.853Z,7.14
2022-12-23T08:48:09.130Z,7.64
2022-12-23T08:53:05.376Z,7.47
2022-12-23T08:58:01.662Z,7.34
2022-12-23T09:02:58.041Z,7.53
2022-12-23T09:07:54.133Z,7.55
2022-12-23T09:12:50.373Z,7.84
2022-12-23T09:17:45.694Z,7.6
2022-12-23T09:22:40.915Z,8.17
2022-12-23T09:27:37.197Z,8.23
2022-12-23T09:32:33.427Z,7.48
2022-12-23T09:37:29.689Z,7.17
2022-12-23T09:42:41.951Z,7.43
2022-12-23T09:47:41.158Z,8.04
2022-12-23T09:52:42.456Z,7.95
2022-12-23T09:57:47.652Z,7.83
2022-12-23T10:02:55.058Z,8.37
2022-12-23T10:07:58.123Z,8.65
2022-12-23T10:13:01.411Z,8.8
2022-12-23T10:18:02.626Z,8.92
2022-12-23T10:23:04.857Z,9.11
2022-12-23T10:28:02.127Z,8.8
2022-12-23T10:33:04.375Z,9.05
2022-12-23T10:38:09.646Z,9.11
2022-12-23T10:43:14.836Z,8.74
2022-12-23T10:53:29.321Z,8.22
2022-12-23T10:58:28.591Z,8.7
2022-12-23T11:03:31.091Z,8.96
2022-12-23T11:08:29.064Z,9.14
2022-12-23T11:13:30.360Z,8.82
2022-12-23T11:18:30.513Z,9.24
2022-12-23T11:23:27.866Z,9.91
2022-12-23T11:28:24.072Z,11.48
2022-12-23T11:33:22.300Z,13.21
2022-12-23T11:38:18.595Z,13.69
2022-12-23T11:43:15.841Z,14.2
2022-12-23T11:48:18.073Z,13.45
2022-12-23T11:53:21.330Z,14.97
2022-12-23T11:58:20.576Z,15.06
2022-12-23T12:03:18.921Z,15.09
2022-12-23T12:08:19.129Z,15.24
2022-12-23T12:13:22.369Z,16.23
2022-12-23T12:18:20.605Z,16.31
2022-12-23T12:23:21.820Z,15.9
2022-12-23T12:28:23.069Z,17.22
2022-12-23T12:33:28.326Z,17.94
2022-12-23T12:38:29.621Z,18.76
2022-12-23T12:43:30.796Z,18.62
2022-12-23T12:48:36.024Z,16.57
2022-12-23T12:53:36.302Z,14.96
2022-12-23T12:58:32.532Z,14.07
2022-12-23T13:03:51.705Z,13.61
2022-12-23T13:09:02.006Z,13.39
2022-12-23T13:14:07.229Z,13.38
2022-12-23T13:19:14.445Z,13.57
2022-12-23T13:24:17.679Z,14.27
2022-12-23T13:29:21.901Z,13.55
2022-12-23T13:34:28.166Z,13.19
2022-12-23T13:39:40.437Z,12.75
2022-12-23T13:44:39.652Z,12.89
2022-12-23T13:49:46.866Z,12.89
2022-12-23T13:54:54.099Z,12.77
2022-12-23T14:00:01.108Z,12.71
2022-12-23T14:05:02.608Z,12.3
2022-12-23T14:10:06.841Z,12.38
2022-12-23T14:15:13.049Z,12.44
2022-12-23T14:20:22.343Z,12.59
2022-12-23T14:25:32.505Z,13.49
2022-12-23T14:30:33.719Z,14.8
2022-12-23T14:35:45.029Z,14.85
2022-12-23T14:40:53.250Z,14.75
2022-12-23T14:45:59.517Z,13.97
2022-12-23T14:51:10.670Z,13.8
2022-12-23T14:56:18.900Z,12.32
2022-12-23T15:01:18.248Z,11.71
2022-12-23T15:06:16.411Z,12.05
2022-12-23T15:11:16.645Z,11.77
2022-12-23T15:16:17.964Z,11.82
2022-12-23T15:26:21.396Z,11.78
2022-12-23T15:31:24.698Z,11.93
2022-12-23T15:41:28.139Z,11.24
2022-12-23T15:46:29.772Z,11.53
2022-12-23T15:51:57.694Z,12.14
2022-12-23T15:56:33.871Z,11.97
2022-12-23T16:01:36.109Z,12.19
2022-12-23T16:06:38.333Z,12.53
2022-12-23T16:11:38.588Z,12.38
2022-12-23T16:16:43.881Z,12.04
2022-12-23T16:21:43.063Z,12.25
2022-12-23T16:26:42.327Z,11.67
2022-12-23T16:31:41.603Z,12.22
2022-12-23T16:36:47.920Z,11.7
2022-12-23T16:41:45.156Z,11.59
2022-12-23T16:46:48.319Z,11.32
2022-12-23T16:51:45.572Z,11.45
2022-12-23T16:56:42.890Z,11.61
2022-12-23T17:01:42.369Z,11.32
2022-12-23T17:06:42.318Z,11.08
2022-12-23T17:11:44.559Z,10.76
2022-12-23T17:16:44.938Z,10.8
2022-12-23T17:21:44.053Z,10.94
2022-12-23T17:26:40.304Z,10.73
2022-12-23T17:31:36.611Z,10.75
2022-12-23T17:36:32.899Z,10.36
2022-12-23T17:41:30.123Z,10.51
2022-12-23T17:46:26.382Z,10.5
2022-12-23T17:51:22.614Z,10.41
2022-12-23T17:56:19.879Z,10.38
2022-12-23T18:01:17.182Z,10.43
2022-12-23T18:06:14.461Z,10.24
2022-12-23T18:11:15.661Z,10.31
2022-12-23T18:16:12.969Z,10.5
2022-12-23T18:21:13.181Z,10.65
2022-12-23T18:26:12.393Z,10.12
2022-12-23T18:31:13.816Z,10.41
2022-12-23T18:36:16.943Z,10.35
2022-12-23T18:41:13.129Z,9.73
2022-12-23T18:46:09.537Z,9.95
2022-12-23T18:51:06.676Z,9.07
2022-12-23T18:56:02.972Z,8.8
2022-12-23T19:01:00.304Z,9.26
2022-12-23T19:05:58.430Z,8.84
2022-12-23T19:10:55.790Z,8.82
2022-12-23T19:15:52.202Z,8.63
2022-12-23T19:20:49.266Z,8.65
2022-12-23T19:25:54.354Z,7.78
2022-12-23T19:30:48.892Z,8.26
2022-12-23T19:35:45.047Z,8.8
2022-12-23T19:40:41.214Z,8.83
2022-12-23T19:45:39.494Z,9.07
2022-12-23T19:50:35.731Z,9.29
2022-12-23T19:55:32.029Z,9.32
2022-12-23T20:00:28.269Z,9.53
2022-12-23T20:05:24.534Z,9.54
2022-12-23T20:10:22.336Z,9.45
2022-12-23T20:15:18.020Z,9.58
2022-12-23T20:20:14.308Z,9.66
2022-12-23T20:25:10.534Z,9.76
2022-12-23T20:30:07.818Z,9.54
2022-12-23T20:35:04.108Z,9.29
2022-12-23T20:40:00.536Z,9.62
2022-12-23T20:44:56.625Z,9.57
2022-12-23T20:49:52.867Z,9.9
2022-12-23T20:55:03.507Z,9.63
2022-12-23T21:00:09.296Z,9.65
2022-12-23T21:05:05.638Z,9.87
2022-12-23T21:10:01.806Z,9.67
2022-12-23T21:14:58.106Z,9.76
2022-12-23T21:19:54.351Z,9.67
2022-12-23T21:24:50.627Z,9.51
2022-12-23T21:29:46.882Z,9.92
2022-12-23T21:34:43.104Z,9.11
2022-12-23T21:39:42.375Z,9.16
2022-12-23T21:44:37.646Z,9.99
2022-12-23T21:49:33.921Z,9.51
2022-12-23T21:54:30.159Z,9.12
2022-12-23T21:59:32.798Z,8.7
2022-12-23T22:04:27.696Z,9.02
2022-12-23T22:09:24.895Z,9.2
2022-12-23T22:14:21.194Z,8.86
2022-12-23T22:19:17.438Z,9.27
2022-12-23T22:24:13.712Z,8.91
2022-12-23T22:29:09.987Z,8.99
2022-12-23T22:34:07.236Z,8.69
2022-12-23T22:39:03.469Z,9.44
2022-12-23T22:43:59.731Z,9.02
2022-12-23T22:48:55.988Z,8.66
2022-12-23T22:53:52.251Z,8.74
2022-12-23T22:58:49.503Z,9.24
2022-12-23T23:03:45.805Z,9.69
2022-12-23T23:08:42.036Z,9.79
2022-12-23T23:13:38.270Z,8.73
2022-12-23T23:18:34.548Z,8.87
2022-12-23T23:23:30.855Z,9.3
2022-12-23T23:28:27.091Z,9.38
2022-12-23T23:33:23.317Z,9.55
2022-12-23T23:38:19.579Z,9.66
2022-12-23T23:43:15.844Z,9.84
2022-12-23T23:48:12.105Z,9.94
2022-12-23T23:53:08.373Z,9.87
2022-12-23T23:58:04.616Z,9.96
